createdAt,value
2023-03-29T00:00:31.390Z,1.17
2023-03-29T00:02:59.432Z,1.23
2023-03-29T00:05:26.841Z,1.37
2023-03-29T00:07:54.367Z,1.33
2023-03-29T00:10:24.081Z,1.20
2023-03-29T00:12:52.605Z,1.20
2023-03-29T00:15:20.736Z,1.48
2023-03-29T00:17:48.270Z,1.02
2023-03-29T00:20:16.538Z,1.55
2023-03-29T00:22:44.472Z,1.40
2023-03-29T00:25:13.099Z,1.35
2023-03-29T00:27:40.925Z,1.60
2023-03-29T00:30:10.131Z,1.23
2023-03-29T00:32:38.500Z,1.98
2023-03-29T00:35:06.695Z,1.70
2023-03-29T00:37:34.026Z,1.50
2023-03-29T00:40:01.493Z,1.20
2023-03-29T00:42:28.671Z,1.50
2023-03-29T00:45:06.145Z,1.55
2023-03-29T00:47:42.762Z,1.55
2023-03-29T00:50:22.445Z,1.55
2023-03-29T00:52:55.304Z,1.80
2023-03-29T00:55:24.593Z,1.62
2023-03-29T00:57:55.741Z,1.80
2023-03-29T01:00:27.062Z,1.90
2023-03-29T01:02:59.669Z,1.90
2023-03-29T01:05:34.027Z,1.90
2023-03-29T01:08:05.101Z,2.00
2023-03-29T01:10:57.266Z,1.23
2023-03-29T01:13:41.689Z,1.67
2023-03-29T01:16:10.869Z,2.20
2023-03-29T01:18:38.426Z,1.60
2023-03-29T01:21:20.375Z,1.80
2023-03-29T01:24:24.819Z,1.87
2023-03-29T01:27:03.669Z,9.13
2023-03-29T01:29:34.152Z,3.40
2023-03-29T01:32:17.685Z,3.80
2023-03-29T01:34:57.628Z,8.02
2023-03-29T01:37:30.135Z,13.05
2023-03-29T01:39:57.564Z,10.88
2023-03-29T01:43:16.382Z,6.57
2023-03-29T01:45:51.617Z,6.03
2023-03-29T01:48:25.016Z,4.72
2023-03-29T01:50:54.715Z,4.53
2023-03-29T01:53:27.187Z,3.83
2023-03-29T01:56:04.459Z,2.28
2023-03-29T01:58:38.949Z,2.75
2023-03-29T02:01:10.442Z,2.10
2023-03-29T02:03:42.282Z,2.67
2023-03-29T02:06:14.595Z,2.92
2023-03-29T02:08:43.067Z,1.90
2023-03-29T02:11:10.574Z,1.90
2023-03-29T02:13:38.013Z,2.15
2023-03-29T02:16:15.314Z,1.85
2023-03-29T02:18:44.664Z,1.92
2023-03-29T02:21:26.212Z,2.10
2023-03-29T02:23:55.259Z,2.00
2023-03-29T02:26:23.980Z,2.40
2023-03-29T02:28:52.762Z,2.20
2023-03-29T02:31:32.369Z,2.72
2023-03-29T02:34:07.906Z,2.95
2023-03-29T02:37:06.877Z,3.78
2023-03-29T02:39:34.888Z,3.40
2023-03-29T02:42:03.175Z,2.37
2023-03-29T02:44:32.263Z,3.12
2023-03-29T02:47:06.635Z,2.40
2023-03-29T02:49:34.273Z,2.37
2023-03-29T02:52:07.383Z,2.10
2023-03-29T02:54:37.998Z,2.00
2023-03-29T02:57:08.637Z,1.80
2023-03-29T02:59:36.371Z,2.25
2023-03-29T03:02:03.579Z,2.10
2023-03-29T03:04:31.656Z,2.30
2023-03-29T03:06:59.099Z,2.25
2023-03-29T03:09:26.355Z,6.55
2023-03-29T03:11:53.556Z,8.00
2023-03-29T03:14:22.882Z,14.10
2023-03-29T03:16:50.688Z,12.80
2023-03-29T03:19:17.838Z,22.92
2023-03-29T03:21:47.033Z,13.43
2023-03-29T03:24:15.593Z,10.98
2023-03-29T03:26:42.820Z,8.85
2023-03-29T03:29:11.302Z,10.13
2023-03-29T03:31:41.322Z,9.73
2023-03-29T03:34:11.488Z,12.25
2023-03-29T03:36:39.721Z,26.77
2023-03-29T03:39:07.369Z,16.98
2023-03-29T03:41:34.787Z,9.27
2023-03-29T03:44:02.270Z,9.55
2023-03-29T03:46:30.029Z,10.43
2023-03-29T03:48:58.641Z,10.50
2023-03-29T03:51:27.135Z,5.03
2023-03-29T03:53:54.545Z,3.62
2023-03-29T03:56:23.646Z,2.72
2023-03-29T03:58:52.616Z,2.62
2023-03-29T04:01:19.934Z,3.12
2023-03-29T04:03:48.722Z,3.15
2023-03-29T04:06:16.306Z,2.67
2023-03-29T04:08:45.636Z,3.58
2023-03-29T04:11:13.754Z,1.83
2023-03-29T04:13:41.597Z,4.35
2023-03-29T04:16:12.138Z,5.82
2023-03-29T04:18:39.827Z,7.00
2023-03-29T04:21:07.214Z,6.65
2023-03-29T04:23:36.105Z,7.32
2023-03-29T04:26:04.147Z,6.93
2023-03-29T04:28:33.149Z,8.18
2023-03-29T04:31:00.799Z,8.05
2023-03-29T04:33:29.429Z,7.15
2023-03-29T04:35:59.128Z,8.38
2023-03-29T04:38:27.427Z,6.47
2023-03-29T04:40:55.235Z,5.87
2023-03-29T04:43:23.733Z,5.07
2023-03-29T04:45:52.681Z,5.78
2023-03-29T04:48:22.365Z,6.28
2023-03-29T04:50:49.669Z,6.10
2023-03-29T04:53:17.333Z,7.22
2023-03-29T04:55:46.922Z,4.87
2023-03-29T04:58:14.424Z,5.22
2023-03-29T05:00:42.938Z,5.05
2023-03-29T05:03:14.476Z,4.68
2023-03-29T05:05:42.355Z,3.87
2023-03-29T05:08:10.650Z,4.20
2023-03-29T05:10:43.300Z,6.43
2023-03-29T05:13:11.237Z,4.70
2023-03-29T05:15:41.292Z,5.12
2023-03-29T05:18:09.682Z,4.53
2023-03-29T05:20:37.782Z,5.35
2023-03-29T05:23:05.274Z,5.72
2023-03-29T05:25:36.445Z,5.47
2023-03-29T05:28:03.872Z,4.80
2023-03-29T05:30:31.386Z,5.72
2023-03-29T05:33:02.103Z,5.37
2023-03-29T05:35:29.704Z,5.75
2023-03-29T05:37:58.238Z,6.05
2023-03-29T05:40:26.314Z,7.05
2023-03-29T05:42:55.227Z,6.70
2023-03-29T05:45:23.024Z,6.72
2023-03-29T05:47:50.749Z,7.18
2023-03-29T05:50:18.135Z,7.07
2023-03-29T05:52:45.995Z,6.75
2023-03-29T05:55:13.924Z,7.18
2023-03-29T05:57:41.481Z,8.23
2023-03-29T06:00:21.986Z,7.70
2023-03-29T06:02:52.666Z,7.28
2023-03-29T06:05:21.328Z,6.32
2023-03-29T06:07:49.173Z,7.85
2023-03-29T06:10:18.045Z,7.35
2023-03-29T06:12:47.023Z,6.93
2023-03-29T06:15:16.162Z,6.40
2023-03-29T06:17:47.708Z,6.72
2023-03-29T06:20:15.127Z,8.10
2023-03-29T06:22:42.765Z,7.37
2023-03-29T06:25:12.366Z,7.82
2023-03-29T06:27:39.892Z,8.27
2023-03-29T06:30:08.073Z,6.82
2023-03-29T06:32:36.211Z,5.82
2023-03-29T06:35:04.996Z,5.05
2023-03-29T06:37:32.590Z,6.18
2023-03-29T06:40:01.079Z,5.50
2023-03-29T06:42:29.726Z,5.75
2023-03-29T06:44:58.106Z,4.70
2023-03-29T06:47:30.885Z,4.68
2023-03-29T06:49:58.213Z,5.00
2023-03-29T06:52:27.064Z,4.80
2023-03-29T06:54:54.534Z,4.22
2023-03-29T06:57:23.978Z,4.28
2023-03-29T06:59:51.541Z,4.53
2023-03-29T07:02:18.808Z,5.18
2023-03-29T07:04:46.266Z,5.05
2023-03-29T07:07:20.522Z,5.07
2023-03-29T07:09:53.887Z,5.12
2023-03-29T07:12:23.460Z,4.55
2023-03-29T07:14:50.662Z,5.22
2023-03-29T07:17:18.560Z,4.53
2023-03-29T07:19:46.844Z,5.22
2023-03-29T07:22:15.313Z,4.10
2023-03-29T07:24:43.895Z,4.50
2023-03-29T07:27:11.361Z,5.25
2023-03-29T07:29:38.662Z,4.72
2023-03-29T07:32:06.527Z,4.75
2023-03-29T07:34:35.621Z,4.45
2023-03-29T07:37:03.039Z,4.80
2023-03-29T07:39:31.045Z,5.10
2023-03-29T07:42:01.570Z,3.83
2023-03-29T07:44:29.932Z,3.67
2023-03-29T07:46:59.970Z,4.80
2023-03-29T07:49:27.831Z,3.22
2023-03-29T07:51:55.375Z,2.53
2023-03-29T07:54:23.677Z,2.70
2023-03-29T07:56:52.089Z,2.97
2023-03-29T07:59:19.526Z,2.40
2023-03-29T08:01:47.987Z,2.90
2023-03-29T08:04:15.933Z,3.22
2023-03-29T08:06:49.128Z,3.03
2023-03-29T08:09:17.644Z,2.12
2023-03-29T08:11:44.969Z,2.72
2023-03-29T08:14:12.639Z,2.58
2023-03-29T08:16:41.945Z,2.30
2023-03-29T08:19:10.308Z,2.17
2023-03-29T08:21:39.440Z,1.80
2023-03-29T08:24:08.041Z,1.40
2023-03-29T08:26:36.385Z,1.45
2023-03-29T08:29:04.088Z,2.00
2023-03-29T08:31:32.208Z,1.62
2023-03-29T08:34:02.106Z,1.30
2023-03-29T08:36:30.471Z,1.70
2023-03-29T08:38:58.763Z,1.87
2023-03-29T08:41:41.007Z,1.92
2023-03-29T08:44:20.613Z,1.45
2023-03-29T08:46:51.986Z,1.45
2023-03-29T08:49:20.860Z,1.02
2023-03-29T08:51:53.109Z,2.37
2023-03-29T08:54:25.057Z,1.27
2023-03-29T08:57:03.073Z,1.40
2023-03-29T08:59:32.033Z,1.12
2023-03-29T09:02:00.867Z,1.60
2023-03-29T09:04:31.689Z,2.92
2023-03-29T09:06:59.518Z,1.52
2023-03-29T09:09:33.565Z,1.25
2023-03-29T09:12:26.362Z,1.90
2023-03-29T09:15:24.988Z,1.05
2023-03-29T09:17:53.107Z,1.33
2023-03-29T09:20:51.494Z,1.20
2023-03-29T09:24:07.713Z,2.28
2023-03-29T09:26:47.602Z,1.00
2023-03-29T09:29:37.398Z,2.53
2023-03-29T09:32:13.769Z,2.30
2023-03-29T09:34:46.925Z,1.62
2023-03-29T09:37:24.904Z,1.65
2023-03-29T09:39:53.222Z,1.50
2023-03-29T09:42:21.935Z,2.10
2023-03-29T09:44:53.030Z,1.48
2023-03-29T09:47:24.985Z,1.20
2023-03-29T09:49:58.960Z,1.27
2023-03-29T09:52:26.425Z,2.03
2023-03-29T09:54:54.194Z,2.17
2023-03-29T09:57:29.609Z,2.55
2023-03-29T09:59:58.983Z,1.65
2023-03-29T10:02:30.704Z,1.65
2023-03-29T10:05:04.034Z,2.10
2023-03-29T10:07:44.571Z,2.30
2023-03-29T10:10:22.968Z,2.42
2023-03-29T10:12:52.547Z,1.90
2023-03-29T10:15:29.238Z,1.73
2023-03-29T10:18:07.466Z,2.60
2023-03-29T10:20:38.462Z,1.87
2023-03-29T10:23:08.098Z,2.17
2023-03-29T10:25:42.077Z,2.15
2023-03-29T10:28:21.089Z,3.55
2023-03-29T10:30:54.227Z,3.67
2023-03-29T10:33:24.261Z,5.20
2023-03-29T10:35:51.864Z,1.87
2023-03-29T10:38:20.959Z,1.80
2023-03-29T10:40:50.102Z,1.85
2023-03-29T10:43:17.595Z,2.08
2023-03-29T10:45:48.565Z,1.98
2023-03-29T10:48:17.642Z,3.00
2023-03-29T10:50:54.718Z,2.10
2023-03-29T10:53:28.460Z,1.80
2023-03-29T10:56:14.218Z,3.50
2023-03-29T10:58:56.481Z,2.50
2023-03-29T11:02:01.825Z,2.00
2023-03-29T11:04:44.968Z,1.70
2023-03-29T11:07:33.915Z,2.50
2023-03-29T11:10:25.970Z,3.92
2023-03-29T11:13:03.359Z,1.90
2023-03-29T11:15:42.675Z,2.80
2023-03-29T11:18:20.089Z,2.58
2023-03-29T11:21:12.539Z,2.40
2023-03-29T11:23:50.784Z,3.00
2023-03-29T11:26:27.197Z,3.37
2023-03-29T11:29:01.784Z,2.42
2023-03-29T11:34:03.643Z,1.98
2023-03-29T11:36:58.524Z,2.58
2023-03-29T11:42:14.292Z,2.47
2023-03-29T11:44:42.224Z,2.50
2023-03-29T11:47:20.872Z,3.05
2023-03-29T11:49:54.565Z,2.90
2023-03-29T11:52:25.889Z,2.60
2023-03-29T11:55:14.708Z,2.30
2023-03-29T11:58:01.424Z,2.42
2023-03-29T12:00:42.712Z,2.50
2023-03-29T12:03:40.661Z,2.70
2023-03-29T12:06:21.461Z,2.60
2023-03-29T12:09:01.267Z,3.62
2023-03-29T12:11:31.157Z,2.35
2023-03-29T12:14:27.781Z,3.05
2023-03-29T12:17:01.591Z,2.17
2023-03-29T12:19:38.591Z,2.47
2023-03-29T12:22:09.178Z,2.70
2023-03-29T12:24:40.406Z,2.37
2023-03-29T12:27:30.700Z,2.60
2023-03-29T12:30:04.152Z,2.40
2023-03-29T12:32:53.081Z,2.40
2023-03-29T12:35:24.460Z,2.25
2023-03-29T12:38:05.224Z,2.25
2023-03-29T12:40:46.047Z,3.17
2023-03-29T12:43:25.302Z,2.37
2023-03-29T12:46:07.759Z,3.05
2023-03-29T12:48:37.549Z,3.50
2023-03-29T12:51:08.531Z,2.53
2023-03-29T12:53:41.014Z,3.22
2023-03-29T12:56:12.579Z,3.15
2023-03-29T12:58:39.709Z,2.70
2023-03-29T13:01:23.396Z,4.22
2023-03-29T13:03:52.946Z,2.50
2023-03-29T13:06:46.625Z,2.58
2023-03-29T13:09:23.312Z,2.65
2023-03-29T13:11:55.190Z,4.20
2023-03-29T13:14:27.455Z,2.75
2023-03-29T13:17:11.886Z,2.25
2023-03-29T13:20:05.681Z,2.72
2023-03-29T13:23:16.185Z,2.30
2023-03-29T13:26:17.417Z,2.42
2023-03-29T13:29:03.569Z,2.10
2023-03-29T13:31:50.392Z,2.58
2023-03-29T13:34:24.830Z,2.10
2023-03-29T13:36:58.334Z,2.30
2023-03-29T13:39:30.945Z,3.37
2023-03-29T13:42:18.060Z,2.60
2023-03-29T13:44:49.026Z,2.22
2023-03-29T13:47:19.492Z,2.92
2023-03-29T13:49:53.278Z,2.15
2023-03-29T13:52:32.920Z,3.15
2023-03-29T13:55:19.880Z,4.50
2023-03-29T13:57:56.804Z,2.12
2023-03-29T14:00:28.651Z,2.37
2023-03-29T14:02:59.276Z,2.17
2023-03-29T14:05:32.508Z,4.22
2023-03-29T14:08:27.939Z,2.95
2023-03-29T14:10:55.876Z,2.53
2023-03-29T14:13:25.176Z,1.90
2023-03-29T14:15:54.792Z,3.03
2023-03-29T14:18:24.249Z,2.30
2023-03-29T14:20:54.886Z,2.20
2023-03-29T14:23:27.394Z,3.58
2023-03-29T14:25:54.824Z,2.40
2023-03-29T14:28:27.048Z,2.35
2023-03-29T14:30:56.009Z,2.33
2023-03-29T14:33:27.321Z,2.75
2023-03-29T14:35:56.110Z,2.62
2023-03-29T14:38:24.405Z,3.00
2023-03-29T14:40:51.786Z,2.20
2023-03-29T14:43:24.247Z,3.20
2023-03-29T14:45:51.590Z,3.50
2023-03-29T14:48:19.135Z,2.53
2023-03-29T14:50:47.197Z,2.85
2023-03-29T14:53:20.442Z,2.80
2023-03-29T14:55:51.663Z,12.30
2023-03-29T14:58:32.346Z,3.22
2023-03-29T15:01:21.483Z,1.70
2023-03-29T15:04:09.168Z,2.45
2023-03-29T15:06:42.378Z,2.80
2023-03-29T15:09:19.171Z,4.60
2023-03-29T15:11:52.269Z,3.40
2023-03-29T15:14:20.295Z,2.92
2023-03-29T15:16:48.443Z,4.60
2023-03-29T15:19:18.590Z,2.58
2023-03-29T15:21:51.086Z,5.95
2023-03-29T15:24:27.751Z,3.62
2023-03-29T15:27:15.654Z,2.20
2023-03-29T15:29:45.290Z,2.60
2023-03-29T15:32:31.658Z,2.72
2023-03-29T15:35:04.931Z,3.62
2023-03-29T15:37:32.282Z,2.92
2023-03-29T15:39:59.781Z,5.07
2023-03-29T15:42:26.974Z,5.62
2023-03-29T15:44:56.247Z,3.58
2023-03-29T15:47:24.051Z,2.70
2023-03-29T15:49:51.665Z,5.28
2023-03-29T15:52:18.982Z,2.37
2023-03-29T15:54:46.487Z,3.00
2023-03-29T15:57:14.968Z,5.80
2023-03-29T15:59:42.982Z,2.67
2023-03-29T16:02:15.878Z,3.60
2023-03-29T16:04:43.574Z,3.83
2023-03-29T16:07:14.551Z,7.30
2023-03-29T16:09:42.388Z,5.78
2023-03-29T16:12:10.421Z,4.62
2023-03-29T16:14:37.748Z,4.15
2023-03-29T16:17:05.974Z,3.25
2023-03-29T16:19:33.877Z,4.80
2023-03-29T16:22:02.462Z,3.70
2023-03-29T16:24:32.059Z,3.05
2023-03-29T16:27:00.084Z,3.70
2023-03-29T16:29:27.568Z,2.92
2023-03-29T16:31:54.943Z,3.65
2023-03-29T16:34:23.006Z,3.05
2023-03-29T16:36:50.699Z,6.57
2023-03-29T16:39:18.455Z,6.28
2023-03-29T16:41:49.040Z,3.95
2023-03-29T16:44:20.189Z,5.32
2023-03-29T16:46:49.245Z,6.28
2023-03-29T16:49:19.155Z,5.55
2023-03-29T16:51:46.925Z,3.80
2023-03-29T16:54:15.165Z,4.95
2023-03-29T16:56:42.382Z,4.60
2023-03-29T16:59:09.715Z,4.32
2023-03-29T17:01:37.451Z,4.93
2023-03-29T17:04:04.853Z,6.95
2023-03-29T17:06:32.808Z,5.20
2023-03-29T17:09:02.558Z,4.22
2023-03-29T17:11:29.697Z,3.85
2023-03-29T17:13:56.898Z,2.45
2023-03-29T17:16:24.397Z,5.78
2023-03-29T17:18:51.673Z,2.78
2023-03-29T17:21:19.089Z,2.90
2023-03-29T17:23:46.493Z,3.03
2023-03-29T17:26:14.160Z,2.90
2023-03-29T17:28:43.490Z,3.33
2023-03-29T17:31:11.191Z,4.65
2023-03-29T17:33:40.409Z,2.70
2023-03-29T17:36:08.222Z,2.80
2023-03-29T17:38:38.030Z,2.90
2023-03-29T17:41:07.014Z,5.28
2023-03-29T17:43:34.260Z,10.20
2023-03-29T17:48:28.925Z,8.25
2023-03-29T17:50:56.975Z,5.80
2023-03-29T17:53:24.666Z,5.40
2023-03-29T17:55:52.246Z,4.68
2023-03-29T17:58:22.237Z,4.95
2023-03-29T18:00:49.692Z,6.65
2023-03-29T18:03:17.227Z,4.43
2023-03-29T18:05:44.345Z,6.45
2023-03-29T18:08:13.558Z,5.43
2023-03-29T18:10:41.184Z,7.00
2023-03-29T18:13:11.299Z,4.85
2023-03-29T18:15:38.553Z,5.47
2023-03-29T18:18:06.364Z,4.85
2023-03-29T18:20:33.639Z,6.12
2023-03-29T18:23:01.097Z,5.35
2023-03-29T18:25:31.627Z,3.42
2023-03-29T18:27:58.824Z,3.50
2023-03-29T18:30:26.241Z,3.60
2023-03-29T18:32:54.179Z,4.55
2023-03-29T18:35:21.542Z,4.30
2023-03-29T18:37:48.727Z,5.10
2023-03-29T18:40:20.155Z,25.27
2023-03-29T18:42:47.795Z,4.90
2023-03-29T18:45:14.993Z,4.78
2023-03-29T18:47:42.655Z,9.60
2023-03-29T18:50:10.640Z,9.55
2023-03-29T18:52:40.177Z,6.62
2023-03-29T18:55:10.609Z,5.60
2023-03-29T18:57:37.779Z,4.45
2023-03-29T19:00:10.650Z,4.55
2023-03-29T19:02:39.625Z,4.32
2023-03-29T19:05:08.638Z,4.65
2023-03-29T19:07:35.982Z,4.32
2023-03-29T19:10:04.662Z,5.62
2023-03-29T19:12:33.551Z,3.90
2023-03-29T19:15:00.751Z,4.70
2023-03-29T19:17:28.487Z,4.68
2023-03-29T19:19:56.796Z,4.75
2023-03-29T19:22:24.163Z,5.72
2023-03-29T19:24:51.634Z,9.30
2023-03-29T19:27:18.874Z,6.78
2023-03-29T19:29:46.225Z,11.45
2023-03-29T19:32:13.683Z,13.15
2023-03-29T19:34:40.940Z,17.17
2023-03-29T19:37:08.135Z,16.65
2023-03-29T19:39:35.896Z,9.48
2023-03-29T19:42:03.053Z,12.60
2023-03-29T19:44:30.415Z,29.65
2023-03-29T19:46:57.880Z,31.77
2023-03-29T19:49:25.084Z,45.35
2023-03-29T19:51:54.876Z,23.95
2023-03-29T19:54:22.250Z,46.47
2023-03-29T19:56:51.320Z,14.45
2023-03-29T19:59:20.203Z,17.98
2023-03-29T20:01:51.060Z,13.38
2023-03-29T20:04:20.880Z,17.48
2023-03-29T20:06:48.524Z,13.90
2023-03-29T20:09:18.674Z,12.55
2023-03-29T20:11:48.758Z,12.57
2023-03-29T20:14:16.092Z,14.75
2023-03-29T20:16:44.790Z,14.45
2023-03-29T20:19:17.469Z,13.32
2023-03-29T20:21:44.820Z,9.95
2023-03-29T20:24:12.222Z,10.98
2023-03-29T20:26:39.489Z,10.77
2023-03-29T20:29:07.248Z,8.45
2023-03-29T20:31:34.809Z,9.07
2023-03-29T20:34:01.954Z,6.22
2023-03-29T20:36:30.820Z,8.27
2023-03-29T20:38:59.341Z,8.82
2023-03-29T20:41:26.674Z,6.93
2023-03-29T20:44:00.402Z,6.80
2023-03-29T20:46:34.932Z,6.15
2023-03-29T20:49:07.314Z,7.78
2023-03-29T20:51:35.548Z,7.80
2023-03-29T20:54:05.791Z,10.52
2023-03-29T20:56:35.554Z,10.43
2023-03-29T20:59:04.028Z,7.72
2023-03-29T21:01:31.578Z,7.47
2023-03-29T21:03:58.872Z,7.82
2023-03-29T21:06:26.439Z,7.47
2023-03-29T21:08:53.643Z,6.68
2023-03-29T21:11:21.021Z,5.85
2023-03-29T21:13:48.580Z,6.50
2023-03-29T21:16:15.920Z,7.03
2023-03-29T21:18:43.529Z,7.55
2023-03-29T21:21:12.061Z,7.00
2023-03-29T21:23:39.796Z,6.57
2023-03-29T21:26:07.957Z,7.97
2023-03-29T21:28:36.208Z,7.22
2023-03-29T21:31:07.414Z,7.85
2023-03-29T21:33:35.527Z,7.50
2023-03-29T21:36:03.190Z,7.75
2023-03-29T21:38:30.657Z,8.15
2023-03-29T21:40:58.216Z,8.38
2023-03-29T21:43:25.840Z,8.93
2023-03-29T21:45:53.065Z,7.60
2023-03-29T21:48:20.316Z,8.27
2023-03-29T21:50:51.084Z,7.28
2023-03-29T21:53:18.466Z,10.75
2023-03-29T21:55:48.476Z,8.30
2023-03-29T21:58:16.282Z,8.15
2023-03-29T22:00:43.711Z,9.68
2023-03-29T22:03:11.482Z,11.18
2023-03-29T22:05:38.830Z,8.80
2023-03-29T22:08:06.667Z,10.18
2023-03-29T22:10:37.747Z,7.55
2023-03-29T22:13:04.938Z,7.40
2023-03-29T22:15:35.525Z,6.85
2023-03-29T22:18:03.950Z,6.55
2023-03-29T22:20:35.518Z,7.75
2023-03-29T22:23:03.389Z,7.35
2023-03-29T22:25:31.079Z,6.10
2023-03-29T22:27:58.593Z,7.68
2023-03-29T22:30:26.164Z,5.28
2023-03-29T22:32:53.373Z,5.22
2023-03-29T22:35:20.692Z,5.55
2023-03-29T22:37:48.128Z,5.78
2023-03-29T22:40:15.513Z,5.97
2023-03-29T22:42:42.651Z,6.12
2023-03-29T22:45:10.934Z,5.37
2023-03-29T22:47:38.258Z,6.00
2023-03-29T22:50:06.223Z,5.87
2023-03-29T22:52:33.727Z,5.50
2023-03-29T22:55:00.906Z,5.72
2023-03-29T22:57:28.150Z,6.90
2023-03-29T22:59:55.727Z,6.10
2023-03-29T23:02:22.956Z,6.47
2023-03-29T23:04:50.194Z,6.10
2023-03-29T23:07:17.773Z,6.70
2023-03-29T23:09:45.102Z,8.15
2023-03-29T23:12:12.363Z,11.27
2023-03-29T23:14:42.699Z,10.68
2023-03-29T23:17:10.393Z,10.23
2023-03-29T23:19:38.132Z,8.70
2023-03-29T23:22:05.717Z,11.12
2023-03-29T23:24:33.382Z,11.80
2023-03-29T23:27:01.228Z,11.63
2023-03-29T23:29:28.805Z,7.47
2023-03-29T23:31:56.896Z,9.48
2023-03-29T23:34:24.105Z,10.32
2023-03-29T23:36:51.574Z,13.15
2023-03-29T23:39:18.770Z,20.80
2023-03-29T23:41:45.855Z,16.75
2023-03-29T23:44:13.494Z,16.85
2023-03-29T23:46:41.903Z,13.40
2023-03-29T23:49:09.989Z,8.82
2023-03-29T23:51:39.078Z,8.63
2023-03-29T23:54:06.620Z,7.45
2023-03-29T23:56:34.016Z,8.70
2023-03-29T23:59:01.575Z,10.55
